Time;durP1;ratioP1;P1;durP2;ratioP2;P2;SDS_P1;SDS_P2;PMS_P1;PMS_P2;Temp;Humidity;BMP_temperature;BMP_pressure;BME280_temperature;BME280_humidity;BME280_pressure;Samples;Min_cycle;Max_cycle;Signal;HPM_P1;HPM_P2
2022/08/12 00:43:16;;;;;;;;;13.00;12.50;;;;;26.64;33.98;98969.06;5052953;28;45494;-67
2022/08/12 00:48:30;;;;;;;;;11.75;10.25;;;;;26.63;34.03;98967.38;5054608;28;45499;-67
2022/08/12 00:50:59;;;;;;;;;11.25;10.50;;;;;26.65;33.85;98961.78;5056615;28;45356;-67
2022/08/12 00:53:27;;;;;;;;;15.00;15.00;;;;;26.65;34.13;98959.91;5056928;28;45445;-66
2022/08/12 00:55:55;;;;;;;;;11.50;11.50;;;;;26.66;34.25;98960.75;5056324;28;45404;-67
2022/08/12 00:58:24;;;;;;;;;11.25;10.75;;;;;26.65;34.21;98957.22;5055589;28;46154;-67
2022/08/12 01:00:51;;;;;;;;;14.25;12.50;;;;;26.64;34.17;98966.38;5048290;28;45510;-67
2022/08/12 01:03:20;;;;;;;;;13.25;12.75;;;;;26.61;34.13;98960.44;5057254;28;45484;-67
2022/08/12 01:11:31;;;;;;;;;9.75;7.75;;;;;26.53;34.49;98961.25;5045479;28;45449;-67
2022/08/12 01:14:00;;;;;;;;;13.00;13.00;;;;;26.50;34.17;98963.44;5045717;28;45471;-67
2022/08/12 01:16:26;;;;;;;;;13.75;13.00;;;;;26.48;34.56;98958.19;5057036;28;45441;-67
2022/08/12 01:18:53;;;;;;;;;15.00;14.75;;;;;26.46;35.28;98965.66;5052540;28;45751;-65
2022/08/12 01:21:57;;;;;;;;;10.50;10.50;;;;;26.43;35.74;98966.00;5055443;28;45448;-64
2022/08/12 01:24:47;;;;;;;;;15.00;11.75;;;;;26.37;35.01;98970.19;5028681;28;45638;-64
2022/08/12 01:27:14;;;;;;;;;17.75;14.50;;;;;26.31;34.99;98962.72;5056605;28;45341;-63
2022/08/12 01:29:44;;;;;;;;;22.67;21.00;;;;;26.26;34.08;98964.22;5047893;28;45521;-64
2022/08/12 01:32:13;;;;;;;;;32.00;28.67;;;;;26.22;34.49;98969.09;5056322;28;45419;-64
2022/08/12 01:34:44;;;;;;;;;32.33;30.00;;;;;26.17;34.24;98968.75;5044783;28;45483;-65
2022/08/12 01:37:12;;;;;;;;;46.67;38.33;;;;;26.14;34.45;98963.69;5054460;28;45309;-66
2022/08/12 01:39:42;;;;;;;;;39.67;34.00;;;;;26.09;34.84;98966.03;5049997;27;45432;-67
2022/08/12 01:42:10;;;;;;;;;34.00;30.00;;;;;26.01;34.61;98965.97;5051023;28;45495;-65
2022/08/12 01:44:36;;;;;;;;;24.33;22.67;;;;;25.96;34.85;98966.50;5051514;28;45411;-66
2022/08/12 01:47:41;;;;;;;;;23.67;23.67;;;;;25.92;35.13;98970.53;5053199;28;45261;-65
2022/08/12 01:50:35;;;;;;;;;29.00;25.33;;;;;25.88;34.99;98962.91;5047737;28;45849;-66
2022/08/12 01:53:25;;;;;;;;;15.00;15.00;;;;;25.85;35.37;98961.38;5053322;28;45448;-65
2022/08/12 01:55:53;;;;;;;;;14.75;14.50;;;;;25.84;35.34;98966.94;5048698;28;45412;-66
2022/08/12 01:59:45;;;;;;;;;17.50;16.25;;;;;25.80;35.75;98971.81;5048932;28;45532;-67
2022/08/12 02:01:23;;;;;;;;;15.00;15.00;;;;;25.77;35.73;98966.75;5050755;28;45478;-67
2022/08/12 02:12:59;;;;;;;;;16.50;15.00;;;;;25.66;35.73;98969.72;5051364;28;45502;-65
2022/08/12 02:15:43;;;;;;;;;17.25;17.25;;;;;25.65;35.57;98973.41;5048845;28;45511;-65
2022/08/12 02:18:37;;;;;;;;;14.75;13.50;;;;;25.60;36.38;98973.88;5056054;28;45455;-65
2022/08/12 02:21:05;;;;;;;;;19.00;12.50;;;;;25.55;36.93;98970.81;5049521;28;45429;-65
2022/08/12 02:23:33;;;;;;;;;15.50;15.50;;;;;25.52;37.42;98973.81;5045592;28;45633;-64
2022/08/12 02:26:05;;;;;;;;;16.25;15.50;;;;;25.48;37.49;98968.91;5044184;28;45420;-65
2022/08/12 02:28:30;;;;;;;;;15.00;15.00;;;;;25.42;36.90;98967.69;5053945;28;45397;-66
2022/08/12 02:31:02;;;;;;;;;18.00;16.25;;;;;25.40;36.53;98967.00;5052671;28;45361;-66
2022/08/12 02:33:28;;;;;;;;;15.75;13.75;;;;;25.35;37.17;98972.03;5055610;28;46675;-66
2022/08/12 02:35:54;;;;;;;;;19.00;16.75;;;;;25.33;37.13;98966.78;5055961;28;45462;-66
2022/08/12 02:38:22;;;;;;;;;17.75;17.50;;;;;25.30;36.99;98968.97;5054443;28;45436;-65
2022/08/12 02:40:51;;;;;;;;;17.50;17.25;;;;;25.27;37.27;98964.75;5041394;28;45464;-65
2022/08/12 02:43:33;;;;;;;;;18.50;18.50;;;;;25.24;37.26;98965.06;5049585;28;46231;-65
2022/08/12 02:46:05;;;;;;;;;16.00;14.00;;;;;25.22;37.20;98964.34;5049586;28;45458;-66
2022/08/12 02:48:34;;;;;;;;;15.75;14.50;;;;;25.21;37.12;98959.97;5052013;28;45420;-66
2022/08/12 02:51:10;;;;;;;;;18.00;18.00;;;;;25.19;38.16;98959.28;5052423;28;45290;-65
2022/08/12 02:53:37;;;;;;;;;16.00;16.00;;;;;25.11;37.71;98956.53;5049766;28;45417;-65
2022/08/12 02:56:04;;;;;;;;;16.00;13.75;;;;;25.07;38.33;98951.59;5050323;28;45652;-65
2022/08/12 02:58:34;;;;;;;;;15.50;15.00;;;;;25.01;38.90;98953.06;5054618;28;45509;-64
2022/08/12 03:01:02;;;;;;;;;16.75;14.75;;;;;24.96;38.87;98945.47;5045688;28;45436;-65
2022/08/12 03:03:33;;;;;;;;;14.25;14.25;;;;;24.94;39.15;98947.47;5055675;28;46179;-65
2022/08/12 03:06:01;;;;;;;;;12.00;12.00;;;;;24.93;38.32;98942.19;5046391;28;45423;-65
2022/08/12 03:08:34;;;;;;;;;16.00;15.00;;;;;24.94;38.39;98952.00;5053209;28;45392;-65
2022/08/12 03:11:09;;;;;;;;;13.75;13.75;;;;;24.93;38.21;98950.28;5052059;28;45471;-65
2022/08/12 03:13:40;;;;;;;;;14.50;13.25;;;;;24.92;38.03;98952.13;5052453;28;46569;-65
2022/08/12 03:16:06;;;;;;;;;17.00;15.75;;;;;24.91;38.39;98947.75;5051634;28;45439;-61
2022/08/12 03:18:33;;;;;;;;;13.75;13.75;;;;;24.92;37.99;98946.75;5052926;28;45567;-62
2022/08/12 03:21:00;;;;;;;;;14.00;14.00;;;;;24.91;37.84;98947.75;5047041;28;45572;-62
2022/08/12 03:23:27;;;;;;;;;12.25;12.25;;;;;24.89;38.27;98949.75;5052205;28;47063;-62
2022/08/12 03:25:57;;;;;;;;;17.00;17.00;;;;;24.89;38.44;98948.91;5048917;28;45427;-62
2022/08/12 03:31:09;;;;;;;;;17.25;16.50;;;;;24.88;38.28;98949.91;5049852;28;45361;-62
2022/08/12 03:33:41;;;;;;;;;16.50;15.00;;;;;24.89;38.22;98947.06;5051771;28;45539;-62
2022/08/12 03:36:07;;;;;;;;;18.50;17.25;;;;;24.88;38.09;98950.75;5052814;28;45320;-61
2022/08/12 03:38:37;;;;;;;;;13.00;13.00;;;;;24.86;37.87;98950.06;5052391;28;45415;-61
2022/08/12 03:41:32;;;;;;;;;16.00;14.25;;;;;24.85;38.36;98952.91;5051547;28;45424;-62
2022/08/12 04:00:45;;;;;;;;;13.50;13.00;;;;;24.47;39.78;98949.53;5054461;28;45473;-68
2022/08/12 04:05:55;;;;;;;;;20.00;18.25;;;;;24.35;39.92;98945.38;5050423;28;45472;-68
2022/08/12 04:08:24;;;;;;;;;13.00;12.00;;;;;24.32;39.79;98959.13;5052768;28;45403;-68
2022/08/12 04:13:34;;;;;;;;;13.25;13.25;;;;;24.23;40.33;98957.34;5056545;28;45429;-68
2022/08/12 04:16:01;;;;;;;;;17.00;14.25;;;;;24.19;39.68;98953.25;5051728;28;46338;-69
2022/08/12 04:18:27;;;;;;;;;16.00;15.00;;;;;24.16;39.89;98951.69;5056930;28;45502;-69
2022/08/12 04:20:53;;;;;;;;;14.75;13.75;;;;;24.15;39.81;98955.38;5053280;28;45479;-70
2022/08/12 04:23:22;;;;;;;;;15.75;15.50;;;;;24.13;40.01;98956.56;5055659;28;45381;-70
2022/08/12 04:25:48;;;;;;;;;14.00;13.75;;;;;24.10;39.98;98951.47;5047831;28;45459;-71
2022/08/12 04:28:13;;;;;;;;;14.75;14.00;;;;;24.04;39.87;98949.38;5057073;28;45349;-70
2022/08/12 04:30:39;;;;;;;;;17.50;16.00;;;;;24.02;40.49;98952.22;5054998;28;45345;-71
2022/08/12 04:33:08;;;;;;;;;18.00;17.00;;;;;23.99;40.45;98952.50;5057311;28;45549;-71
2022/08/12 04:35:34;;;;;;;;;13.50;13.50;;;;;23.98;39.84;98956.19;5038925;28;45511;-71
2022/08/12 04:38:00;;;;;;;;;15.00;15.00;;;;;23.96;40.17;98958.22;5056659;28;45547;-71
2022/08/12 04:40:30;;;;;;;;;16.00;16.00;;;;;23.94;40.34;98957.53;5047930;28;45438;-71
2022/08/12 04:42:56;;;;;;;;;16.75;16.00;;;;;23.94;40.69;98961.06;5054964;28;45294;-70
2022/08/12 04:45:21;;;;;;;;;18.25;15.00;;;;;23.95;40.42;98957.38;5051241;28;45486;-70
2022/08/12 04:47:47;;;;;;;;;17.00;15.50;;;;;23.95;40.26;98959.22;5047994;28;45345;-71
2022/08/12 04:50:17;;;;;;;;;14.00;13.25;;;;;23.91;40.29;98957.81;5052228;28;45444;-70
2022/08/12 04:52:43;;;;;;;;;17.67;16.33;;;;;23.89;40.53;98960.66;5056382;28;45543;-67
2022/08/12 04:55:11;;;;;;;;;14.25;14.25;;;;;23.90;40.44;98962.34;5051377;28;45886;-68
2022/08/12 04:57:37;;;;;;;;;17.50;16.75;;;;;23.91;40.18;98960.50;5055468;28;45396;-71
2022/08/12 05:00:10;;;;;;;;;18.75;16.75;;;;;23.92;40.53;98967.59;5047865;28;45346;-71
2022/08/12 05:02:36;;;;;;;;;16.00;16.00;;;;;23.92;40.19;98959.50;5053211;28;45531;-71
2022/08/12 05:05:04;;;;;;;;;15.75;15.75;;;;;23.92;40.18;98963.06;5046278;28;46218;-71
2022/08/12 05:07:29;;;;;;;;;20.67;19.67;;;;;23.95;40.35;98960.06;5050920;28;45476;-70
2022/08/12 05:09:55;;;;;;;;;17.00;15.00;;;;;23.98;39.94;98964.28;5049803;28;45436;-71
2022/08/12 05:12:22;;;;;;;;;16.75;14.50;;;;;23.99;39.81;98957.91;5052428;28;45331;-71
2022/08/12 05:14:49;;;;;;;;;19.00;16.50;;;;;24.01;40.18;98961.28;5051987;28;46108;-71
2022/08/12 05:17:15;;;;;;;;;15.75;14.00;;;;;24.02;40.50;98961.16;5056120;27;45451;-72
2022/08/12 05:19:41;;;;;;;;;16.25;14.00;;;;;24.02;40.26;98961.16;5056505;28;45289;-77
2022/08/12 05:22:07;;;;;;;;;14.75;13.75;;;;;24.04;40.67;98961.00;5055153;28;45504;-76
2022/08/12 05:24:33;;;;;;;;;16.25;14.50;;;;;24.05;41.21;98967.22;5049216;28;45802;-77
2022/08/12 05:26:59;;;;;;;;;15.75;14.75;;;;;24.02;40.62;98958.44;5054764;28;45377;-78
2022/08/12 05:29:24;;;;;;;;;17.00;17.00;;;;;23.99;41.04;98958.75;5054125;28;45470;-79
2022/08/12 05:31:54;;;;;;;;;15.50;15.50;;;;;23.93;41.22;98962.06;5056165;28;45374;-77
2022/08/12 05:34:19;;;;;;;;;16.75;15.25;;;;;23.85;41.67;98964.63;5050052;28;45438;-75
2022/08/12 05:36:44;;;;;;;;;15.00;15.00;;;;;23.79;41.79;98961.72;5054971;28;45412;-74
2022/08/12 05:39:10;;;;;;;;;16.75;15.50;;;;;23.77;41.77;98964.56;5055449;28;45478;-76
2022/08/12 05:41:36;;;;;;;;;18.00;16.25;;;;;23.78;41.85;98963.56;5050737;28;45402;-77
2022/08/12 05:44:06;;;;;;;;;19.25;15.00;;;;;23.79;41.27;98961.72;5053467;28;45432;-73
2022/08/12 05:46:33;;;;;;;;;17.00;17.00;;;;;23.80;42.00;98963.38;5054069;28;45402;-75
2022/08/12 05:48:59;;;;;;;;;16.00;15.50;;;;;23.80;41.66;98964.22;5064123;28;45338;-76
2022/08/12 05:51:28;;;;;;;;;18.50;17.00;;;;;23.82;41.98;98964.94;5048047;28;45573;-77
2022/08/12 05:53:55;;;;;;;;;18.50;16.00;;;;;23.85;41.97;98964.63;5053105;28;45620;-75
2022/08/12 05:56:27;;;;;;;;;16.25;15.50;;;;;23.90;42.39;98965.03;5055318;28;45262;-75
2022/08/12 05:58:54;;;;;;;;;20.50;17.75;;;;;23.97;42.12;98970.66;5051005;28;45587;-75
2022/08/12 06:01:21;;;;;;;;;17.00;14.50;;;;;24.01;41.78;98964.84;5054959;28;45547;-74
2022/08/12 06:03:47;;;;;;;;;15.25;15.25;;;;;24.06;41.56;98967.09;5052843;28;45491;-75
2022/08/12 06:06:16;;;;;;;;;17.00;16.75;;;;;24.11;42.01;98969.34;5055021;28;45492;-74
2022/08/12 06:08:47;;;;;;;;;18.25;17.00;;;;;24.12;41.74;98965.66;5050603;28;45305;-75
2022/08/12 06:11:16;;;;;;;;;20.75;20.25;;;;;24.18;41.66;98973.94;5053593;28;45534;-75
2022/08/12 06:13:42;;;;;;;;;18.50;18.00;;;;;24.22;41.68;98971.81;5053606;28;45473;-75
2022/08/12 06:16:10;;;;;;;;;17.25;17.25;;;;;24.26;41.32;98957.91;5053832;28;45343;-72
2022/08/12 06:18:39;;;;;;;;;14.25;13.75;;;;;24.29;40.93;98965.72;5051893;28;45369;-73
2022/08/12 06:21:09;;;;;;;;;17.50;16.50;;;;;24.33;41.03;98961.69;5047364;28;45407;-74
2022/08/12 06:23:36;;;;;;;;;14.75;14.00;;;;;24.37;41.21;98964.94;5064945;27;45610;-63
2022/08/12 06:26:03;;;;;;;;;16.25;15.00;;;;;24.43;41.20;98966.19;5053688;28;45447;-63
2022/08/12 06:28:29;;;;;;;;;15.50;15.50;;;;;24.48;41.10;98961.16;5042405;28;45474;-69
2022/08/12 06:30:56;;;;;;;;;17.00;16.50;;;;;24.53;40.70;98962.41;5043981;28;45342;-62
2022/08/12 06:33:22;;;;;;;;;16.50;16.50;;;;;24.56;40.47;98963.94;5052999;28;46044;-68
2022/08/12 06:35:48;;;;;;;;;14.25;13.25;;;;;24.58;40.53;98954.72;5048146;28;45551;-67
2022/08/12 06:38:19;;;;;;;;;17.00;16.00;;;;;24.61;40.33;98956.25;5053957;28;45431;-67
2022/08/12 06:43:31;;;;;;;;;14.25;14.25;;;;;24.70;40.32;98950.75;5053155;28;45504;-64
2022/08/12 06:45:57;;;;;;;;;15.00;15.00;;;;;24.77;40.26;98948.31;5046469;28;45435;-64
2022/08/12 06:48:28;;;;;;;;;15.00;14.75;;;;;24.82;39.99;98947.81;5053347;27;45457;-65
2022/08/12 06:50:55;;;;;;;;;18.75;16.00;;;;;24.87;40.48;98945.50;5046432;28;45515;-64
2022/08/12 06:53:22;;;;;;;;;16.25;15.50;;;;;24.89;39.67;98949.75;5053296;28;45426;-64
2022/08/12 06:56:00;;;;;;;;;16.50;13.25;;;;;24.92;39.36;98945.91;5108598;27;45312;-63
2022/08/12 06:58:30;;;;;;;;;16.75;15.50;;;;;24.96;39.20;98953.56;5089296;27;45592;-63
2022/08/12 07:00:57;;;;;;;;;20.50;18.25;;;;;24.99;39.48;98952.38;5084405;27;45416;-63
2022/08/12 07:03:29;;;;;;;;;15.75;14.75;;;;;25.00;39.63;98952.22;5089684;27;45414;-64
2022/08/12 07:06:03;;;;;;;;;14.50;14.25;;;;;25.02;38.90;98950.22;5089107;27;45438;-64
2022/08/12 07:08:30;;;;;;;;;15.75;15.75;;;;;25.09;39.76;98949.59;5079258;27;45501;-64
2022/08/12 07:10:59;;;;;;;;;13.50;13.50;;;;;25.15;39.37;98947.09;5088153;27;45485;-64
2022/08/12 07:13:42;;;;;;;;;17.00;16.25;;;;;25.20;38.82;98950.19;5089939;27;45470;-71
2022/08/12 07:16:09;;;;;;;;;17.75;17.75;;;;;25.23;39.15;98944.47;5090937;27;46336;-69
2022/08/12 07:18:34;;;;;;;;;17.25;16.00;;;;;25.28;39.44;98944.84;5089390;27;45541;-68
2022/08/12 07:21:02;;;;;;;;;20.00;16.75;;;;;25.34;38.90;98941.50;5090222;27;45422;-69
2022/08/12 07:23:33;;;;;;;;;16.75;16.75;;;;;25.36;38.74;98941.34;5088911;27;45513;-68
2022/08/12 07:26:02;;;;;;;;;16.25;15.25;;;;;25.42;38.75;98954.19;5085291;27;47042;-68
2022/08/12 07:28:32;;;;;;;;;19.50;17.75;;;;;25.48;39.13;98953.53;5089967;27;45704;-63
2022/08/12 07:30:58;;;;;;;;;21.00;18.25;;;;;25.55;39.02;98951.06;5083151;27;45595;-68
2022/08/12 07:33:27;;;;;;;;;18.25;15.50;;;;;25.65;38.66;98944.56;5087129;27;45681;-71
2022/08/12 07:35:54;;;;;;;;;18.50;18.25;;;;;25.75;38.63;98943.59;5088383;27;47408;-68
2022/08/12 07:38:38;;;;;;;;;16.00;14.00;;;;;25.84;38.47;98942.63;5084864;27;45441;-71
2022/08/12 07:41:07;;;;;;;;;17.75;16.50;;;;;25.93;38.14;98941.66;5084637;27;45520;-69
2022/08/12 07:43:35;;;;;;;;;20.75;17.50;;;;;26.00;37.96;98938.13;5089318;27;45476;-72
2022/08/12 07:46:04;;;;;;;;;15.75;14.75;;;;;26.10;37.75;98934.44;5089212;27;45779;-73
2022/08/12 07:48:42;;;;;;;;;14.25;14.25;;;;;26.18;36.77;98934.47;5079354;27;45629;-69
2022/08/12 07:51:08;;;;;;;;;16.75;16.75;;;;;26.23;37.09;98932.13;5076012;27;45391;-74
2022/08/12 07:53:35;;;;;;;;;14.75;14.75;;;;;26.27;36.92;98926.22;5077251;27;45477;-72
2022/08/12 07:56:02;;;;;;;;;16.00;16.00;;;;;26.32;36.89;98928.44;5093012;27;46075;-72
2022/08/12 07:58:27;;;;;;;;;18.25;18.25;;;;;26.35;36.57;98926.25;5095441;27;45372;-75
2022/08/12 08:00:56;;;;;;;;;18.00;18.00;;;;;26.42;36.93;98924.59;5101690;27;45454;-70
2022/08/12 08:03:24;;;;;;;;;15.25;15.00;;;;;26.48;36.29;98922.22;5110007;27;45506;-70
2022/08/12 08:05:50;;;;;;;;;16.75;14.00;;;;;26.53;36.52;98912.59;5104481;27;47010;-70
2022/08/12 08:08:19;;;;;;;;;16.75;15.00;;;;;26.59;36.55;98905.69;5095968;27;45371;-71
2022/08/12 08:10:46;;;;;;;;;18.00;16.00;;;;;26.65;36.47;98905.81;5092936;27;45455;-70
2022/08/12 08:13:12;;;;;;;;;18.75;16.25;;;;;26.73;36.26;98908.53;5096850;27;45354;-71
2022/08/12 08:15:39;;;;;;;;;18.25;15.50;;;;;26.79;36.08;98906.19;5095045;27;46299;-71
2022/08/12 08:18:07;;;;;;;;;15.50;14.50;;;;;26.84;35.87;98901.94;5096231;27;45505;-71
2022/08/12 08:20:40;;;;;;;;;15.75;15.00;;;;;26.89;36.08;98898.72;5095768;27;45520;-70
2022/08/12 08:23:09;;;;;;;;;17.50;17.50;;;;;26.94;35.87;98888.28;5087357;27;45318;-70
2022/08/12 08:25:37;;;;;;;;;16.75;16.00;;;;;26.99;35.52;98889.44;5091549;27;47169;-71
2022/08/12 08:28:06;;;;;;;;;16.25;14.50;;;;;27.06;35.61;98892.31;5087090;27;45441;-68
2022/08/12 08:30:33;;;;;;;;;19.00;16.75;;;;;27.14;35.15;98891.47;5083666;27;45520;-73
2022/08/12 08:33:50;;;;;;;;;14.25;12.50;;;;;27.20;34.90;98888.06;5079224;27;45540;-53
2022/08/12 08:49:50;;;;;;;;;19.00;18.00;;;;;27.56;35.05;98874.91;5093552;27;45851;-57
2022/08/12 08:59:43;;;;;;;;;19.50;19.00;;;;;27.70;35.21;98869.63;5071019;27;45439;-57
2022/08/12 10:16:33;;;;;;;;;16.50;16.50;;;;;29.14;33.04;98788.34;5058658;28;45402;-55
2022/08/12 10:29:56;;;;;;;;;16.25;16.25;;;;;29.47;32.30;98780.66;5047140;28;45458;-55
2022/08/12 11:31:49;;;;;;;;;8.00;7.50;;;;;31.67;24.24;98679.56;5073370;28;45374;-56
2022/08/12 13:37:49;;;;;;;;;6.75;6.00;;;;;34.18;17.90;98568.31;5068692;27;45504;-57
